Time;durP1;ratioP1;P1;durP2;ratioP2;P2;SDS_P1;SDS_P2;PMS_P1;PMS_P2;Temp;Humidity;BMP_temperature;BMP_pressure;BME280_temperature;BME280_humidity;BME280_pressure;Samples;Min_cycle;Max_cycle;Signal;HPM_P1;HPM_P2
2022/04/29 00:02:01;;;;;;;10.85;3.90;;;10.90;99.90;;;;;;5093167;28;20461;-64
2022/04/29 00:04:27;;;;;;;10.52;4.00;;;10.90;99.90;;;;;;5074967;28;20581;-64
2022/04/29 00:06:52;;;;;;;11.57;4.00;;;10.90;99.90;;;;;;5093452;28;20412;-64
2022/04/29 00:09:18;;;;;;;10.30;3.93;;;10.80;99.90;;;;;;5076580;28;20730;-64
2022/04/29 00:11:46;;;;;;;11.10;4.25;;;10.80;99.90;;;;;;5078391;28;20415;-65
2022/04/29 00:14:12;;;;;;;9.85;4.03;;;10.70;99.90;;;;;;5096670;28;20400;-64
2022/04/29 00:16:37;;;;;;;9.60;4.40;;;10.50;99.90;;;;;;5096935;28;20392;-64
2022/04/29 00:19:03;;;;;;;11.03;4.30;;;10.50;99.90;;;;;;5098618;28;20412;-64
2022/04/29 00:21:29;;;;;;;13.38;4.28;;;10.50;99.90;;;;;;5099063;28;20391;-64
2022/04/29 00:23:54;;;;;;;11.07;4.13;;;10.50;99.90;;;;;;5098353;28;20411;-64
2022/04/29 00:26:20;;;;;;;8.70;4.40;;;10.50;99.90;;;;;;5099182;28;20442;-64
2022/04/29 00:28:45;;;;;;;12.18;4.20;;;10.50;99.90;;;;;;5096959;28;20384;-64
2022/04/29 00:31:11;;;;;;;9.97;4.33;;;10.50;99.90;;;;;;5096760;28;20407;-64
2022/04/29 00:33:36;;;;;;;10.33;4.40;;;10.40;99.90;;;;;;5098550;28;20448;-64
2022/04/29 00:36:02;;;;;;;11.30;4.70;;;10.30;99.90;;;;;;5098222;28;20391;-64
2022/04/29 00:38:28;;;;;;;12.18;4.85;;;10.40;99.90;;;;;;5098390;28;20391;-64
2022/04/29 00:40:53;;;;;;;13.30;4.43;;;10.30;99.90;;;;;;5098065;28;20452;-64
2022/04/29 00:43:19;;;;;;;10.80;4.67;;;10.30;99.90;;;;;;5097956;28;20400;-64
2022/04/29 00:45:44;;;;;;;9.60;4.40;;;10.30;99.90;;;;;;5097820;28;20410;-64
2022/04/29 00:48:10;;;;;;;10.40;4.50;;;10.30;99.90;;;;;;5097018;28;20376;-64
2022/04/29 00:50:37;;;;;;;11.43;4.67;;;10.30;99.90;;;;;;5096459;28;20394;-64
2022/04/29 00:53:07;;;;;;;11.30;4.82;;;10.10;99.90;;;;;;5096905;28;20392;-64
2022/04/29 00:55:36;;;;;;;12.17;5.30;;;10.10;99.90;;;;;;5097880;28;20489;-64
2022/04/29 00:58:06;;;;;;;13.05;4.88;;;10.00;99.90;;;;;;5094658;28;20407;-64
2022/04/29 01:00:32;;;;;;;11.82;5.15;;;10.00;99.90;;;;;;5114516;28;20551;-64
2022/04/29 01:03:00;;;;;;;10.30;5.05;;;10.00;99.90;;;;;;5092930;28;20701;-64
2022/04/29 01:05:26;;;;;;;10.50;4.47;;;10.00;99.90;;;;;;5111313;28;20372;-64
2022/04/29 01:07:53;;;;;;;11.67;4.57;;;10.10;99.90;;;;;;5113325;28;20433;-64
2022/04/29 01:10:20;;;;;;;9.18;4.50;;;10.10;99.90;;;;;;5093981;28;20419;-64
2022/04/29 01:12:55;;;;;;;10.75;4.28;;;10.10;99.90;;;;;;5092462;28;20384;-64
2022/04/29 01:15:21;;;;;;;10.35;4.47;;;10.00;99.90;;;;;;5091765;28;20384;-64
2022/04/29 01:17:50;;;;;;;12.73;4.78;;;10.00;99.90;;;;;;5093720;28;20419;-64
2022/04/29 01:20:18;;;;;;;9.15;4.20;;;10.00;99.90;;;;;;5095343;28;20426;-64
2022/04/29 01:22:44;;;;;;;10.93;5.03;;;10.00;99.90;;;;;;5094443;28;20400;-64
2022/04/29 01:25:11;;;;;;;11.37;4.70;;;9.90;99.90;;;;;;5095142;28;20403;-64
2022/04/29 01:27:37;;;;;;;9.17;4.80;;;9.90;99.90;;;;;;5094785;28;20388;-64
2022/04/29 01:30:11;;;;;;;10.05;4.68;;;9.90;99.90;;;;;;5095383;28;20389;-64
2022/04/29 01:32:39;;;;;;;9.25;4.65;;;9.90;99.90;;;;;;5095864;28;20616;-64
2022/04/29 01:35:06;;;;;;;11.40;4.80;;;9.90;99.90;;;;;;5114446;28;20711;-64
2022/04/29 01:37:32;;;;;;;9.93;4.50;;;9.90;99.90;;;;;;5097313;28;20803;-64
2022/04/29 01:39:58;;;;;;;12.55;4.55;;;9.80;99.90;;;;;;5114275;28;20492;-64
2022/04/29 01:42:24;;;;;;;13.63;5.00;;;9.80;99.90;;;;;;5107524;28;20409;-64
2022/04/29 01:44:50;;;;;;;12.85;5.03;;;9.70;99.90;;;;;;5076717;28;20388;-64
2022/04/29 01:47:16;;;;;;;11.80;4.93;;;9.70;99.90;;;;;;5093544;28;20796;-64
2022/04/29 01:49:42;;;;;;;11.57;4.97;;;9.70;99.90;;;;;;5094127;28;20393;-64
2022/04/29 01:52:08;;;;;;;13.75;5.57;;;9.70;99.90;;;;;;5075819;28;20382;-64
2022/04/29 01:54:38;;;;;;;8.65;4.90;;;9.60;99.90;;;;;;5076420;28;20386;-64
2022/04/29 01:57:07;;;;;;;13.45;5.35;;;9.50;99.90;;;;;;5076572;28;20846;-64
2022/04/29 01:59:34;;;;;;;11.02;4.75;;;9.50;99.90;;;;;;5075987;28;20634;-64
2022/04/29 02:02:00;;;;;;;9.90;4.88;;;9.40;99.90;;;;;;5075934;28;20386;-64
2022/04/29 02:04:26;;;;;;;11.82;5.75;;;9.50;99.90;;;;;;5074336;28;20693;-64
2022/04/29 02:06:52;;;;;;;15.55;5.65;;;9.50;99.90;;;;;;5072382;28;20781;-64
2022/04/29 02:09:18;;;;;;;12.43;5.90;;;9.50;99.90;;;;;;5091500;28;20451;-64
2022/04/29 02:14:28;;;;;;;12.43;5.70;;;9.40;99.90;;;;;;5093105;28;20380;-64
2022/04/29 02:16:55;;;;;;;10.73;4.97;;;9.30;99.90;;;;;;5076722;28;20410;-64
2022/04/29 02:19:22;;;;;;;10.50;4.70;;;9.30;99.90;;;;;;5096676;28;20399;-64
2022/04/29 02:21:48;;;;;;;12.13;5.60;;;9.40;99.90;;;;;;5095241;28;20649;-64
2022/04/29 02:24:13;;;;;;;10.83;5.10;;;9.30;99.90;;;;;;5094944;28;20842;-64
2022/04/29 02:26:39;;;;;;;12.27;5.10;;;9.30;99.90;;;;;;5095692;28;20392;-64
2022/04/29 02:29:07;;;;;;;11.10;5.10;;;9.30;99.90;;;;;;5095982;28;20368;-64
2022/04/29 02:31:32;;;;;;;12.23;5.20;;;9.30;99.90;;;;;;5115045;28;20404;-64
2022/04/29 02:33:58;;;;;;;11.48;5.53;;;9.30;99.90;;;;;;5096515;28;20432;-64
2022/04/29 02:36:23;;;;;;;9.83;5.43;;;9.30;99.90;;;;;;5096305;28;20380;-64
2022/04/29 02:38:49;;;;;;;12.37;5.87;;;9.30;99.90;;;;;;5097339;28;20384;-64
2022/04/29 02:41:14;;;;;;;11.40;5.50;;;9.20;99.90;;;;;;5096282;28;20596;-64
2022/04/29 02:43:41;;;;;;;12.17;5.43;;;9.10;99.90;;;;;;5096803;28;20397;-64
2022/04/29 02:46:07;;;;;;;13.27;5.88;;;9.00;99.90;;;;;;5113619;28;20839;-64
2022/04/29 02:48:33;;;;;;;10.47;5.83;;;9.00;99.90;;;;;;5095461;28;20434;-64
2022/04/29 02:50:59;;;;;;;10.80;5.07;;;9.00;99.90;;;;;;5096151;28;20399;-64
2022/04/29 02:53:25;;;;;;;10.27;5.33;;;8.90;99.90;;;;;;5095634;28;20377;-64
2022/04/29 02:55:50;;;;;;;13.43;5.83;;;9.00;99.90;;;;;;5096131;28;20796;-64
2022/04/29 02:58:16;;;;;;;11.88;6.03;;;9.10;99.90;;;;;;5096296;28;20395;-64
2022/04/29 03:00:41;;;;;;;11.13;5.95;;;9.00;99.90;;;;;;5113026;28;20399;-65
2022/04/29 03:03:07;;;;;;;11.63;5.80;;;9.00;99.90;;;;;;5113243;28;20404;-65
2022/04/29 03:05:32;;;;;;;11.00;5.97;;;8.90;99.90;;;;;;5095902;28;20792;-65
2022/04/29 03:07:58;;;;;;;10.55;6.00;;;8.90;99.90;;;;;;5113070;28;20453;-65
2022/04/29 03:10:23;;;;;;;14.13;5.80;;;8.90;99.90;;;;;;5095966;28;20439;-65
2022/04/29 03:12:49;;;;;;;10.53;5.30;;;8.90;99.90;;;;;;5095547;28;20388;-65
2022/04/29 03:15:17;;;;;;;10.27;5.95;;;9.00;99.90;;;;;;5095048;28;20751;-65
2022/04/29 03:20:36;;;;;;;9.25;5.80;;;8.90;99.90;;;;;;5113907;28;20380;-65
2022/04/29 03:23:03;;;;;;;10.00;5.50;;;8.90;99.90;;;;;;5097001;28;20470;-65
2022/04/29 03:25:28;;;;;;;11.48;5.80;;;9.00;99.90;;;;;;5097027;28;20653;-65
2022/04/29 03:27:54;;;;;;;11.32;5.75;;;9.00;99.90;;;;;;5096418;28;20794;-65
2022/04/29 03:30:19;;;;;;;12.65;6.00;;;8.90;99.90;;;;;;5096326;28;21007;-65
2022/04/29 03:32:56;;;;;;;9.17;5.47;;;8.90;99.90;;;;;;5095762;28;20399;-65
2022/04/29 03:35:23;;;;;;;9.90;5.93;;;8.90;99.90;;;;;;5096673;28;20377;-65
2022/04/29 03:37:51;;;;;;;10.25;6.15;;;8.80;99.90;;;;;;5096853;28;20380;-65
2022/04/29 03:40:23;;;;;;;9.95;5.38;;;8.80;99.90;;;;;;5098359;28;20667;-65
2022/04/29 03:42:54;;;;;;;11.00;5.80;;;8.90;99.90;;;;;;5115279;28;20396;-64
2022/04/29 03:45:21;;;;;;;10.93;5.80;;;8.90;99.90;;;;;;5098160;28;20369;-64
2022/04/29 03:47:46;;;;;;;9.50;5.93;;;8.90;99.90;;;;;;5115390;28;20444;-64
2022/04/29 03:50:13;;;;;;;11.77;5.73;;;8.80;99.90;;;;;;5098466;28;20388;-64
2022/04/29 03:52:50;;;;;;;11.98;6.00;;;8.80;99.90;;;;;;5097586;28;20384;-64
2022/04/29 03:55:17;;;;;;;9.98;5.70;;;8.80;99.90;;;;;;5116036;28;20473;-64
2022/04/29 03:57:43;;;;;;;8.38;6.15;;;8.80;99.90;;;;;;5098116;28;20392;-64
2022/04/29 04:00:09;;;;;;;9.90;6.00;;;8.80;99.90;;;;;;5098303;28;20663;-65
2022/04/29 04:02:35;;;;;;;10.05;6.32;;;8.80;99.90;;;;;;5097882;28;20400;-64
2022/04/29 04:05:01;;;;;;;10.73;6.38;;;8.80;99.90;;;;;;5096276;28;20628;-64
2022/04/29 04:07:26;;;;;;;13.45;6.70;;;8.80;99.90;;;;;;5114490;28;20788;-64
2022/04/29 04:09:52;;;;;;;11.13;6.20;;;8.80;99.90;;;;;;5097568;28;20424;-64
2022/04/29 04:12:17;;;;;;;11.27;6.30;;;8.70;99.90;;;;;;5096100;28;20540;-64
2022/04/29 04:14:43;;;;;;;10.75;6.25;;;8.70;99.90;;;;;;5095048;28;20475;-65
2022/04/29 04:17:09;;;;;;;8.85;5.68;;;8.70;99.90;;;;;;5097152;28;20389;-65
2022/04/29 04:19:35;;;;;;;12.40;6.20;;;8.70;99.90;;;;;;5097688;28;20780;-65
2022/04/29 04:22:01;;;;;;;10.98;5.97;;;8.70;99.90;;;;;;5098797;28;20380;-65
2022/04/29 04:24:27;;;;;;;11.20;6.63;;;8.70;99.90;;;;;;5095707;28;20472;-65
2022/04/29 04:26:53;;;;;;;13.77;6.30;;;8.70;99.90;;;;;;5097469;28;20380;-66
2022/04/29 04:29:18;;;;;;;11.90;6.40;;;8.70;99.90;;;;;;5098110;28;20396;-64
2022/04/29 04:31:44;;;;;;;12.15;5.82;;;8.60;99.90;;;;;;5113971;28;20463;-64
2022/04/29 04:36:53;;;;;;;9.63;5.93;;;8.60;99.90;;;;;;5113324;28;20864;-64
2022/04/29 04:39:20;;;;;;;11.95;6.25;;;8.60;99.90;;;;;;5094668;28;20392;-64
2022/04/29 04:41:48;;;;;;;10.65;6.35;;;8.70;99.90;;;;;;5113808;28;20483;-64
2022/04/29 04:44:14;;;;;;;9.80;6.07;;;8.70;99.90;;;;;;5094744;28;20969;-64
2022/04/29 04:46:40;;;;;;;12.87;6.70;;;8.70;99.90;;;;;;5097077;28;20690;-64
2022/04/29 04:49:05;;;;;;;10.60;6.27;;;8.70;99.90;;;;;;5113169;28;20380;-64
2022/04/29 04:51:31;;;;;;;12.07;6.37;;;8.70;99.90;;;;;;5095538;28;20415;-64
2022/04/29 04:53:57;;;;;;;9.63;6.30;;;8.70;99.90;;;;;;5113748;28;20634;-64
2022/04/29 04:56:23;;;;;;;8.63;5.68;;;8.70;99.90;;;;;;5112440;28;20388;-64
2022/04/29 04:58:48;;;;;;;9.75;6.32;;;8.70;99.90;;;;;;5095925;28;20426;-64
2022/04/29 05:01:14;;;;;;;10.10;6.50;;;8.70;99.90;;;;;;5096307;28;20823;-64
2022/04/29 05:03:40;;;;;;;10.47;6.03;;;8.80;99.90;;;;;;5096342;28;20625;-65
2022/04/29 05:06:05;;;;;;;11.93;6.10;;;8.80;99.90;;;;;;5113823;28;20449;-64
2022/04/29 05:08:31;;;;;;;11.50;6.30;;;8.70;99.90;;;;;;5093763;28;20804;-64
2022/04/29 05:10:56;;;;;;;8.40;5.47;;;8.70;99.90;;;;;;5094267;28;20811;-64
2022/04/29 05:13:22;;;;;;;10.33;6.10;;;8.70;99.90;;;;;;5092750;28;20730;-64
2022/04/29 05:15:47;;;;;;;10.40;6.13;;;8.80;99.90;;;;;;5091413;28;20388;-64
2022/04/29 05:18:15;;;;;;;8.20;5.53;;;8.80;99.90;;;;;;5094422;28;20521;-64
2022/04/29 05:20:40;;;;;;;9.30;5.90;;;8.80;99.90;;;;;;5093090;28;20376;-64
2022/04/29 05:23:06;;;;;;;9.63;5.50;;;8.80;99.90;;;;;;5092227;28;20427;-64
2022/04/29 05:25:33;;;;;;;10.70;6.03;;;8.80;99.90;;;;;;5093053;28;20396;-64
2022/04/29 05:27:58;;;;;;;12.15;6.95;;;8.80;99.90;;;;;;5093744;28;20420;-64
2022/04/29 05:30:26;;;;;;;11.38;7.00;;;8.80;99.90;;;;;;5094002;28;20477;-64
2022/04/29 05:32:53;;;;;;;12.57;7.40;;;8.70;99.90;;;;;;5093819;28;20388;-64
2022/04/29 05:35:19;;;;;;;11.13;6.63;;;8.60;99.90;;;;;;5093541;28;20392;-64
2022/04/29 05:37:44;;;;;;;10.05;7.00;;;8.60;99.90;;;;;;5112054;28;20392;-65
2022/04/29 05:42:55;;;;;;;10.48;6.50;;;8.60;99.90;;;;;;5106240;28;20452;-64
2022/04/29 05:45:21;;;;;;;9.87;6.00;;;8.70;99.90;;;;;;5107341;28;20799;-64
2022/04/29 05:47:47;;;;;;;8.23;5.53;;;8.70;99.90;;;;;;5090463;28;20696;-64
2022/04/29 05:50:12;;;;;;;10.23;6.60;;;8.80;99.90;;;;;;5091050;28;20376;-64
2022/04/29 05:52:38;;;;;;;9.93;5.90;;;8.80;99.90;;;;;;5090413;28;20380;-64
2022/04/29 05:55:04;;;;;;;9.50;5.80;;;8.80;99.90;;;;;;5092928;28;20804;-64
2022/04/29 05:57:29;;;;;;;9.70;5.93;;;8.80;99.90;;;;;;5093403;28;20807;-64
2022/04/29 05:59:55;;;;;;;11.13;6.33;;;8.90;99.90;;;;;;5111021;28;20395;-64
2022/04/29 06:02:23;;;;;;;7.47;5.17;;;8.90;99.90;;;;;;5091399;28;20388;-64
2022/04/29 06:04:49;;;;;;;10.97;5.70;;;8.90;99.90;;;;;;5088613;28;20364;-64
2022/04/29 06:07:14;;;;;;;10.70;5.97;;;9.00;99.90;;;;;;5090489;28;20629;-64
2022/04/29 06:09:40;;;;;;;11.02;5.45;;;9.00;99.90;;;;;;5107869;28;20426;-64
2022/04/29 06:12:06;;;;;;;15.63;6.07;;;9.00;99.90;;;;;;5089543;28;20472;-64
2022/04/29 06:14:33;;;;;;;10.00;5.60;;;9.00;99.90;;;;;;5107031;28;20399;-64
2022/04/29 06:16:59;;;;;;;10.87;6.17;;;9.00;99.90;;;;;;5088252;28;20869;-64
2022/04/29 06:19:25;;;;;;;10.47;5.70;;;9.00;99.90;;;;;;5087074;28;20494;-64
2022/04/29 06:21:50;;;;;;;7.97;5.10;;;9.00;99.90;;;;;;5087372;28;20746;-64
2022/04/29 06:24:16;;;;;;;10.37;4.90;;;9.10;99.90;;;;;;5087474;28;20756;-65
2022/04/29 06:26:42;;;;;;;11.77;6.00;;;9.10;99.90;;;;;;5106067;28;20384;-64
2022/04/29 06:29:07;;;;;;;10.27;5.38;;;9.10;99.90;;;;;;5103264;28;20412;-64
2022/04/29 06:31:33;;;;;;;10.68;5.43;;;9.20;99.90;;;;;;5085909;28;20372;-64
2022/04/29 06:33:58;;;;;;;9.70;4.95;;;9.20;99.90;;;;;;5085535;28;20403;-64
2022/04/29 06:36:24;;;;;;;9.00;4.93;;;9.30;99.90;;;;;;5086936;28;20389;-64
2022/04/29 06:38:50;;;;;;;8.77;4.83;;;9.40;99.90;;;;;;5085709;28;20520;-64
2022/04/29 06:41:15;;;;;;;11.43;5.78;;;9.40;99.90;;;;;;5085394;28;20390;-64
2022/04/29 06:43:41;;;;;;;9.43;5.65;;;9.50;99.90;;;;;;5082821;28;20396;-64
2022/04/29 06:46:07;;;;;;;9.85;5.50;;;9.40;99.90;;;;;;5083490;28;20684;-64
2022/04/29 06:48:32;;;;;;;9.80;5.40;;;9.40;99.90;;;;;;5084186;28;21133;-64
2022/04/29 06:50:58;;;;;;;7.63;4.80;;;9.50;99.90;;;;;;5086222;28;20384;-64
2022/04/29 06:53:24;;;;;;;9.32;4.60;;;9.60;99.90;;;;;;5087252;28;20392;-64
2022/04/29 06:55:49;;;;;;;11.32;5.47;;;9.70;99.90;;;;;;5087086;28;20475;-65
2022/04/29 06:58:15;;;;;;;9.17;4.87;;;9.80;99.90;;;;;;5086465;28;20680;-64
2022/04/29 07:00:42;;;;;;;8.50;5.07;;;9.80;99.90;;;;;;5085880;28;20695;-64
2022/04/29 07:03:09;;;;;;;9.83;5.70;;;9.80;99.90;;;;;;5085892;28;20414;-64
2022/04/29 07:05:39;;;;;;;8.95;4.78;;;9.70;99.90;;;;;;5105498;28;20376;-64
2022/04/29 07:08:06;;;;;;;7.38;4.22;;;9.80;99.90;;;;;;5086361;28;20441;-64
2022/04/29 07:10:31;;;;;;;8.27;3.87;;;9.90;99.90;;;;;;5085882;28;20396;-64
2022/04/29 07:12:57;;;;;;;8.23;4.40;;;10.00;99.90;;;;;;5089315;28;20395;-64
2022/04/29 07:15:23;;;;;;;6.97;3.57;;;10.10;99.90;;;;;;5093754;28;20746;-64
2022/04/29 07:17:48;;;;;;;7.00;3.60;;;10.10;99.90;;;;;;5094106;28;20659;-64
2022/04/29 07:20:15;;;;;;;7.17;3.60;;;10.10;99.90;;;;;;5091494;28;20471;-64
2022/04/29 07:22:41;;;;;;;5.65;3.25;;;10.10;99.90;;;;;;5111781;28;20390;-64
2022/04/29 07:25:09;;;;;;;11.20;4.22;;;10.30;99.90;;;;;;5094524;28;20578;-64
2022/04/29 07:27:35;;;;;;;6.85;4.03;;;10.30;99.90;;;;;;5093025;28;20388;-64
2022/04/29 07:30:03;;;;;;;6.35;3.38;;;10.30;99.90;;;;;;5090673;28;20475;-64
2022/04/29 07:32:30;;;;;;;5.78;3.13;;;10.40;99.90;;;;;;5086781;28;20925;-64
2022/04/29 07:43:10;;;;;;;6.50;3.10;;;10.50;99.90;;;;;;5106308;28;20806;-64
2022/04/29 07:45:38;;;;;;;7.77;2.83;;;10.50;99.90;;;;;;5091364;28;20412;-65
2022/04/29 07:48:05;;;;;;;5.82;2.70;;;10.60;99.90;;;;;;5092477;28;20388;-64
2022/04/29 07:50:31;;;;;;;3.60;2.10;;;10.60;99.90;;;;;;5093371;28;20645;-64
2022/04/29 07:52:58;;;;;;;3.17;1.93;;;10.70;99.90;;;;;;5091682;28;20458;-65
2022/04/29 07:55:24;;;;;;;5.95;2.92;;;10.90;99.90;;;;;;5088596;28;21016;-64
2022/04/29 07:57:50;;;;;;;4.63;2.37;;;10.90;99.90;;;;;;5089564;28;20631;-64
